.
WxDataArchive / Data Records for 2011-11-05
2011-11-04 November 2011 2011-11-06

Data Records for Saturday, 05 November 2011

Time	Temp	Chill	HIndex	Humid	Dewpt	 Wind 	HiWind	WindDir	Rain 	Barom 
-----	----	-----	------	-----	-----	------	------	-------	-----	----- 
00:00	31.5	31.5	31.5	78	25.4	0	0	---	0.00	30.326 
00:05	31.3	31.3	31.3	78	25.3	0	0	---	0.00	30.326 
00:10	31.2	31.2	31.2	79	25.5	0	0	---	0.00	30.326 
00:15	31.0	31.0	31.0	79	25.3	0	0	---	0.00	30.323 
00:20	30.9	30.9	30.9	79	25.2	0	0	---	0.00	30.323 
00:25	30.9	30.9	30.9	80	25.5	0	0	---	0.00	30.323 
00:30	30.7	30.7	30.7	80	25.3	0	0	---	0.00	30.325 
00:35	30.7	30.7	30.7	80	25.3	0	0	---	0.00	30.325 
00:40	30.6	30.6	30.6	81	25.5	0	0	---	0.00	30.325 
00:45	30.6	30.6	30.6	81	25.5	0	0	---	0.00	30.325 
00:50	30.4	30.4	30.4	81	25.3	0	0	---	0.00	30.325 
00:55	30.4	30.4	30.4	81	25.3	0	0	---	0.00	30.325 
01:00	30.3	30.3	30.3	81	25.2	0	0	---	0.00	30.332 
01:05	30.3	30.3	30.3	81	25.2	0	0	---	0.00	30.332 
01:10	30.1	30.1	30.1	82	25.3	0	0	---	0.00	30.332 
01:15	30.1	30.1	30.1	82	25.3	0	0	---	0.00	30.332 
01:20	30.0	30.0	30.0	82	25.2	0	0	---	0.00	30.332 
01:25	29.8	29.8	29.8	82	25.0	0	0	---	0.00	30.332 
01:30	29.8	29.8	29.8	82	25.0	0	0	---	0.00	30.336 
01:35	29.8	29.8	29.8	82	25.0	0	0	---	0.00	30.336 
01:40	29.8	29.8	29.8	82	25.0	0	0	---	0.00	30.336 
01:45	29.7	29.7	29.7	82	24.9	0	0	---	0.00	30.338 
01:50	29.7	29.7	29.7	83	25.2	0	0	---	0.00	30.338 
01:55	29.7	29.7	29.7	83	25.2	0	0	---	0.00	30.338 
02:00	29.5	29.5	29.5	83	25.0	0	0	---	0.00	30.338 
02:05	29.4	29.4	29.4	83	24.9	0	0	---	0.00	30.338 
02:10	29.3	29.3	29.3	84	25.1	0	0	---	0.00	30.338 
02:15	29.4	29.4	29.4	85	25.5	0	1	112	0.00	30.329 
02:20	29.8	29.8	29.8	86	26.1	0	0	---	0.00	30.329 
02:25	30.3	30.3	30.3	86	26.6	0	2	112	0.00	30.329 
02:30	30.7	30.7	30.7	84	26.4	0	0	---	0.00	30.323 
02:35	31.2	31.2	31.2	84	26.9	0	0	---	0.00	30.323 
02:40	31.2	31.2	31.2	83	26.6	0	0	---	0.00	30.323 
02:45	31.3	31.3	31.3	82	26.5	0	0	---	0.00	30.323 
02:50	31.5	31.5	31.5	81	26.4	0	1	112	0.00	30.323 
02:55	31.6	31.6	31.6	81	26.5	0	1	112	0.00	30.323 
03:00	31.9	31.9	31.9	79	26.1	0	1	112	0.00	30.322 
03:05	32.2	32.2	32.2	78	26.1	0	2	112	0.00	30.322 
03:10	32.4	32.4	32.4	78	26.3	0	2	112	0.00	30.322 
03:15	32.4	32.4	32.4	77	26.0	0	1	112	0.00	30.322 
03:20	32.4	32.4	32.4	77	26.0	0	1	112	0.00	30.322 
03:25	32.2	32.2	32.2	77	25.8	0	1	112	0.00	30.322 
03:30	32.2	32.2	32.2	77	25.8	0	1	112	0.00	30.322 
03:35	32.1	32.1	32.1	77	25.7	0	0	---	0.00	30.322 
03:40	31.9	31.9	31.9	77	25.5	0	0	---	0.00	30.322 
03:45	31.6	31.6	31.6	78	25.5	0	0	---	0.00	30.322 
03:50	31.5	31.5	31.5	78	25.4	0	0	---	0.00	30.322 
03:55	31.2	31.2	31.2	79	25.5	0	1	112	0.00	30.322 
04:00	31.2	31.2	31.2	79	25.5	0	1	112	0.00	30.316 
04:05	31.2	31.2	31.2	80	25.8	0	0	---	0.00	30.316 
04:10	31.0	31.0	31.0	80	25.6	0	0	---	0.00	30.316 
04:15	30.9	30.9	30.9	80	25.5	0	0	---	0.00	30.320 
04:20	30.7	30.7	30.7	80	25.3	0	0	---	0.00	30.320 
04:25	30.6	30.6	30.6	81	25.5	0	0	---	0.00	30.320 
04:30	30.6	30.6	30.6	81	25.5	0	1	112	0.00	30.316 
04:35	30.7	30.7	30.7	81	25.6	0	1	112	0.00	30.316 
04:40	30.9	30.9	30.9	81	25.8	0	1	112	0.00	30.316 
04:45	30.9	30.9	30.9	81	25.8	0	1	112	0.00	30.319 
04:50	31.0	31.0	31.0	81	25.9	0	1	112	0.00	30.319 
04:55	31.3	31.3	31.3	81	26.2	0	2	112	0.00	30.319 
05:00	31.5	31.5	31.5	81	26.4	0	2	112	0.00	30.310 
05:05	31.5	31.5	31.5	81	26.4	0	1	112	0.00	30.310 
05:10	31.5	31.5	31.5	81	26.4	0	0	---	0.00	30.310 
05:15	31.5	31.5	31.5	81	26.4	0	1	112	0.00	30.317 
05:20	31.3	31.3	31.3	81	26.2	0	0	---	0.00	30.317 
05:25	31.3	31.3	31.3	81	26.2	0	0	---	0.00	30.317 
05:30	31.0	31.0	31.0	81	25.9	0	0	---	0.00	30.308 
05:35	30.9	30.9	30.9	81	25.8	0	0	---	0.00	30.308 
05:40	30.7	30.7	30.7	81	25.6	0	0	---	0.00	30.308 
05:45	30.6	30.6	30.6	82	25.8	0	1	112	0.00	30.311 
05:50	30.7	30.7	30.7	83	26.2	0	0	---	0.00	30.311 
05:55	30.7	30.7	30.7	83	26.2	0	1	112	0.00	30.311 
06:00	30.7	30.7	30.7	83	26.2	0	0	---	0.00	30.322 
06:05	30.6	30.6	30.6	83	26.1	0	0	---	0.00	30.322 
06:10	30.4	30.4	30.4	83	25.9	0	0	---	0.00	30.322 
06:15	30.1	30.1	30.1	83	25.6	0	0	---	0.00	30.329 
06:20	30.0	30.0	30.0	83	25.5	0	0	---	0.00	30.329 
06:25	29.8	29.8	29.8	83	25.3	0	0	---	0.00	30.329 
06:30	29.5	29.5	29.5	84	25.3	0	0	---	0.00	30.333 
06:35	29.4	29.4	29.4	84	25.2	0	0	---	0.00	30.333 
06:40	29.1	29.1	29.1	84	24.9	0	0	---	0.00	30.333 
06:45	29.0	29.0	29.0	84	24.8	0	0	---	0.00	30.342 
06:50	28.8	28.8	28.8	84	24.6	0	0	---	0.00	30.342 
06:55	28.5	28.5	28.5	85	24.6	0	0	---	0.00	30.342 
07:00	28.4	28.4	28.4	85	24.5	0	0	---	0.00	30.334 
07:05	28.4	28.4	28.4	86	24.8	0	0	---	0.00	30.334 
07:10	28.2	28.2	28.2	86	24.6	0	1	112	0.00	30.334 
07:15	28.1	28.1	28.1	87	24.7	0	1	112	0.00	30.334 
07:20	27.9	27.9	27.9	87	24.5	0	0	---	0.00	30.334 
07:25	27.9	27.9	27.9	87	24.5	0	0	---	0.00	30.334 
07:30	27.9	27.9	27.9	88	24.8	0	0	---	0.00	30.337 
07:35	27.9	27.9	27.9	88	24.8	0	0	---	0.00	30.337 
07:40	27.8	27.8	27.8	88	24.7	0	0	---	0.00	30.337 
07:45	27.8	27.8	27.8	88	24.7	0	0	---	0.00	30.339 
07:50	27.9	27.9	27.9	88	24.8	0	0	---	0.00	30.339 
07:55	27.8	27.8	27.8	88	24.7	0	0	---	0.00	30.339 
08:00	27.9	27.9	27.9	88	24.8	0	0	---	0.00	30.352 
08:05	27.9	27.9	27.9	88	24.8	0	0	---	0.00	30.352 
08:10	27.9	27.9	27.9	89	25.1	0	1	112	0.00	30.352 
08:15	27.9	27.9	27.9	89	25.1	0	0	---	0.00	30.345 
08:20	28.1	28.1	28.1	89	25.3	0	0	---	0.00	30.345 
08:25	28.1	28.1	28.1	89	25.3	0	0	---	0.00	30.345 
08:30	28.1	28.1	28.1	89	25.3	0	0	---	0.00	30.348 
08:35	27.9	27.9	27.9	89	25.1	0	0	---	0.00	30.348 
08:40	28.1	28.1	28.1	89	25.3	0	0	---	0.00	30.348 
08:45	28.1	28.1	28.1	89	25.3	0	0	---	0.00	30.352 
08:50	28.1	28.1	28.1	89	25.3	0	0	---	0.00	30.352 
08:55	28.2	28.2	28.2	89	25.4	0	0	---	0.00	30.352 
09:00	28.4	28.4	28.4	90	25.8	0	0	---	0.00	30.352 
09:05	28.8	28.8	28.8	90	26.2	0	0	---	0.00	30.352 
09:10	29.3	29.3	29.3	90	26.7	0	0	---	0.00	30.352 
09:15	30.1	30.1	30.1	90	27.5	0	1	112	0.00	30.355 
09:20	31.0	31.0	31.0	89	28.1	0	1	112	0.00	30.355 
09:25	31.9	31.9	31.9	88	28.8	0	3	112	0.00	30.355 
09:30	32.8	32.8	32.8	86	29.1	0	3	112	0.00	30.350 
09:35	33.8	33.8	33.8	84	29.5	0	3	90	0.00	30.350 
09:40	34.6	34.6	34.6	82	29.7	0	2	90	0.00	30.350 
09:45	35.2	35.2	35.2	80	29.7	1	4	90	0.00	30.348 
09:50	35.6	35.6	35.6	79	29.7	1	3	90	0.00	30.348 
09:55	36.3	36.3	36.3	77	29.8	1	3	90	0.00	30.348 
10:00	37.0	37.0	37.0	75	29.8	1	3	90	0.00	30.347 
10:05	37.5	37.5	37.5	73	29.6	2	5	90	0.00	30.347 
10:10	37.9	37.9	37.9	72	29.7	1	3	112	0.00	30.347 
10:15	38.3	38.3	38.3	72	30.1	1	4	90	0.00	30.349 
10:20	38.8	38.8	38.8	69	29.5	2	5	90	0.00	30.349 
10:25	39.3	39.3	39.3	69	30.0	1	4	90	0.00	30.349 
10:30	40.2	40.2	40.2	67	30.1	1	3	112	0.00	30.346 
10:35	40.8	40.8	40.8	66	30.3	1	3	68	0.00	30.346 
10:40	41.2	41.2	41.2	65	30.3	2	4	112	0.00	30.346 
10:45	41.5	41.5	41.5	65	30.6	1	4	90	0.00	30.343 
10:50	41.9	41.9	41.9	63	30.2	1	4	90	0.00	30.343 
10:55	42.5	42.5	42.5	63	30.8	0	4	90	0.00	30.343 
11:00	42.9	42.9	42.9	60	30.0	1	4	90	0.00	30.343 
11:05	43.1	43.1	43.1	60	30.2	2	4	90	0.00	30.343 
11:10	43.1	43.1	43.1	60	30.2	1	6	90	0.00	30.343 
11:15	43.3	43.3	43.3	59	29.9	1	4	112	0.00	30.345 
11:20	43.8	43.8	43.8	60	30.8	1	3	112	0.00	30.345 
11:25	44.1	44.1	44.1	59	30.7	1	5	112	0.00	30.345 
11:30	44.3	44.3	44.3	58	30.5	1	3	112	0.00	30.343 
11:35	44.5	44.5	44.5	58	30.7	1	3	112	0.00	30.343 
11:40	44.8	44.8	44.8	57	30.5	0	2	112	0.00	30.343 
11:45	45.1	45.1	45.1	56	30.4	0	2	112	0.00	30.344 
11:50	45.2	45.2	45.2	54	29.6	1	4	112	0.00	30.344 
11:55	45.4	45.4	45.4	55	30.2	0	2	112	0.00	30.344 
12:00	45.8	45.8	45.8	56	31.0	1	3	112	0.00	30.340 
12:05	46.1	46.1	46.1	54	30.4	1	4	112	0.00	30.340 
12:10	46.2	46.2	46.2	53	30.0	1	3	112	0.00	30.340 
12:15	46.5	46.5	46.5	53	30.3	1	3	135	0.00	30.338 
12:20	46.8	46.8	46.8	52	30.1	1	4	90	0.00	30.338 
12:25	47.1	47.1	47.1	50	29.4	1	5	270	0.00	30.338 
12:30	47.4	47.4	47.4	49	29.2	2	5	90	0.00	30.334 
12:35	47.7	47.7	47.7	49	29.5	1	3	68	0.00	30.334 
12:40	48.2	48.2	48.2	47	28.9	1	5	112	0.00	30.334 
12:45	48.5	48.5	48.5	46	28.7	1	4	112	0.00	30.325 
12:50	48.9	48.9	48.9	46	29.0	1	6	90	0.00	30.325 
12:55	49.2	49.2	49.2	46	29.3	1	6	90	0.00	30.325 
13:00	49.5	49.5	49.5	45	29.0	1	5	90	0.00	30.318 
13:05	49.8	49.8	49.8	43	28.2	1	4	90	0.00	30.318 
13:10	50.2	50.2	50.2	45	29.7	0	3	270	0.00	30.318 
13:15	50.5	50.5	50.5	45	30.0	2	5	90	0.00	30.309 
13:20	50.7	50.7	50.7	42	28.5	1	4	112	0.00	30.309 
13:25	50.8	50.8	50.8	41	28.0	1	4	112	0.00	30.309 
13:30	51.1	51.1	51.1	41	28.2	1	3	90	0.00	30.301 
13:35	51.3	51.3	51.3	41	28.4	1	4	112	0.00	30.301 
13:40	51.4	51.4	51.4	40	27.9	1	5	112	0.00	30.301 
13:45	51.6	51.6	51.6	40	28.1	1	4	90	0.00	30.290 
13:50	51.7	51.7	51.7	43	29.9	1	4	112	0.00	30.290 
13:55	52.0	52.0	52.0	43	30.2	1	2	135	0.00	30.290 
14:00	52.3	52.3	52.3	39	28.1	1	3	90	0.00	30.280 
14:05	52.6	52.6	52.6	42	30.2	1	2	112	0.00	30.280 
14:10	52.6	52.6	52.6	38	27.7	2	7	112	0.00	30.280 
14:15	52.8	52.8	52.8	39	28.5	1	3	112	0.00	30.272 
14:20	52.9	52.9	52.9	39	28.6	2	4	112	0.00	30.272 
14:25	52.9	52.9	52.9	38	28.0	1	4	45	0.00	30.272 
14:30	53.1	53.1	53.1	39	28.8	2	7	112	0.00	30.268 
14:35	53.2	53.2	53.2	38	28.3	1	6	90	0.00	30.268 
14:40	53.5	53.5	53.5	41	30.4	1	3	270	0.00	30.268 
14:45	53.8	53.8	53.8	40	30.1	1	4	0	0.00	30.258 
14:50	53.9	53.9	53.9	37	28.2	1	5	68	0.00	30.258 
14:55	53.9	53.9	53.9	36	27.6	2	5	90	0.00	30.258 
15:00	54.1	54.1	54.1	36	27.7	1	4	248	0.00	30.256 
15:05	54.1	54.1	54.1	38	29.1	1	5	45	0.00	30.256 
15:10	54.2	54.2	54.2	38	29.2	1	3	90	0.00	30.256 
15:15	54.5	54.5	54.5	38	29.4	1	3	90	0.00	30.256 
15:20	54.7	54.7	54.7	37	28.9	1	5	90	0.00	30.256 
15:25	54.5	54.5	54.5	36	28.1	2	6	90	0.00	30.256 
15:30	54.7	54.7	54.7	38	29.6	1	4	90	0.00	30.247 
15:35	54.8	54.8	54.8	39	30.3	1	4	68	0.00	30.247 
15:40	54.7	54.7	54.7	36	28.3	2	7	90	0.00	30.247 
15:45	54.7	54.7	54.7	37	28.9	1	3	135	0.00	30.239 
15:50	54.8	54.8	54.8	37	29.0	1	4	112	0.00	30.239 
15:55	54.8	54.8	54.8	35	27.7	2	5	90	0.00	30.239 
16:00	55.1	55.1	55.1	38	30.0	1	4	90	0.00	30.237 
16:05	55.1	55.1	55.1	36	28.6	1	6	68	0.00	30.237 
16:10	55.3	55.3	55.3	36	28.8	1	3	68	0.00	30.237 
16:15	55.3	55.3	55.3	37	29.5	1	3	22	0.00	30.234 
16:20	55.3	55.3	55.3	37	29.5	1	5	22	0.00	30.234 
16:25	55.3	55.3	55.3	35	28.1	2	5	90	0.00	30.234 
16:30	55.1	55.1	55.1	37	29.3	1	4	292	0.00	30.233 
16:35	55.1	55.1	55.1	36	28.6	1	4	90	0.00	30.233 
16:40	55.0	55.0	55.0	35	27.9	2	7	90	0.00	30.233 
16:45	55.0	55.0	55.0	35	27.9	1	5	112	0.00	30.226 
16:50	55.0	55.0	55.0	35	27.9	1	4	90	0.00	30.226 
16:55	55.0	55.0	55.0	36	28.5	2	5	90	0.00	30.226 
17:00	55.0	55.0	55.0	36	28.5	1	4	90	0.00	30.224 
17:05	54.8	54.8	54.8	35	27.7	1	4	90	0.00	30.224 
17:10	54.8	54.8	54.8	35	27.7	2	4	90	0.00	30.224 
17:15	54.7	54.7	54.7	36	28.3	1	4	135	0.00	30.224 
17:20	54.5	54.5	54.5	37	28.8	1	4	90	0.00	30.224 
17:25	54.4	54.4	54.4	37	28.7	2	5	90	0.00	30.224 
17:30	54.4	54.4	54.4	38	29.3	1	5	112	0.00	30.223 
17:35	54.2	54.2	54.2	38	29.2	1	3	135	0.00	30.223 
17:40	54.1	54.1	54.1	37	28.4	1	4	90	0.00	30.223 
17:45	53.9	53.9	53.9	38	28.9	1	2	135	0.00	30.219 
17:50	53.6	53.6	53.6	37	28.0	1	5	112	0.00	30.219 
17:55	53.5	53.5	53.5	38	28.5	1	2	90	0.00	30.219 
18:00	53.3	53.3	53.3	38	28.3	0	2	90	0.00	30.218 
18:05	52.9	52.9	52.9	38	28.0	1	2	90	0.00	30.218 
18:10	52.6	52.6	52.6	38	27.7	0	1	90	0.00	30.218 
18:15	52.3	52.3	52.3	39	28.1	0	1	90	0.00	30.217 
18:20	51.9	51.9	51.9	39	27.7	0	2	90	0.00	30.217 
18:25	51.4	51.4	51.4	39	27.3	0	2	90	0.00	30.217 
18:30	51.0	51.0	51.0	40	27.5	0	1	90	0.00	30.217 
18:35	50.7	50.7	50.7	40	27.3	0	0	---	0.00	30.217 
18:40	50.2	50.2	50.2	41	27.4	0	0	---	0.00	30.217 
18:45	49.8	49.8	49.8	42	27.6	0	0	---	0.00	30.214 
18:50	49.2	49.2	49.2	43	27.7	0	0	---	0.00	30.214 
18:55	48.8	48.8	48.8	43	27.3	0	0	---	0.00	30.214 
19:00	48.3	48.3	48.3	44	27.4	0	0	---	0.00	30.216 
19:05	48.0	48.0	48.0	45	27.7	0	0	---	0.00	30.216 
19:10	47.7	47.7	47.7	46	27.9	0	0	---	0.00	30.216 
19:15	47.3	47.3	47.3	46	27.6	0	0	---	0.00	30.215 
19:20	47.0	47.0	47.0	47	27.8	0	0	---	0.00	30.215 
19:25	46.7	46.7	46.7	48	28.1	0	0	---	0.00	30.215 
19:30	46.4	46.4	46.4	47	27.3	0	0	---	0.00	30.216 
19:35	46.2	46.2	46.2	48	27.6	0	0	---	0.00	30.216 
19:40	46.0	46.0	46.0	49	27.9	0	0	---	0.00	30.216 
19:45	45.7	45.7	45.7	50	28.1	0	0	---	0.00	30.218 
19:50	45.4	45.4	45.4	50	27.9	0	0	---	0.00	30.218 
19:55	44.9	44.9	44.9	50	27.4	0	0	---	0.00	30.218 
20:00	44.8	44.8	44.8	51	27.8	0	0	---	0.00	30.220 
20:05	44.5	44.5	44.5	51	27.5	0	0	---	0.00	30.220 
20:10	44.2	44.2	44.2	52	27.7	0	0	---	0.00	30.220 
20:15	43.9	43.9	43.9	52	27.4	0	0	---	0.00	30.216 
20:20	43.6	43.6	43.6	53	27.6	0	0	---	0.00	30.216 
20:25	43.3	43.3	43.3	54	27.8	0	0	---	0.00	30.216 
20:30	43.1	43.1	43.1	55	28.0	0	0	---	0.00	30.216 
20:35	42.6	42.6	42.6	57	28.4	0	0	---	0.00	30.216 
20:40	42.2	42.2	42.2	58	28.5	0	0	---	0.00	30.216 
20:45	41.8	41.8	41.8	59	28.5	0	0	---	0.00	30.212 
20:50	41.3	41.3	41.3	59	28.1	0	0	---	0.00	30.212 
20:55	41.1	41.1	41.1	60	28.3	0	0	---	0.00	30.212 
21:00	40.8	40.8	40.8	61	28.4	0	0	---	0.00	30.214 
21:05	40.3	40.3	40.3	61	27.9	0	0	---	0.00	30.214 
21:10	40.1	40.1	40.1	62	28.1	0	0	---	0.00	30.214 
21:15	39.8	39.8	39.8	62	27.9	0	0	---	0.00	30.209 
21:20	39.5	39.5	39.5	63	28.0	0	0	---	0.00	30.209 
21:25	39.3	39.3	39.3	64	28.2	0	0	---	0.00	30.209 
21:30	39.1	39.1	39.1	65	28.3	0	0	---	0.00	30.204 
21:35	38.8	38.8	38.8	65	28.1	0	0	---	0.00	30.204 
21:40	38.5	38.5	38.5	65	27.8	0	0	---	0.00	30.204 
21:45	38.3	38.3	38.3	67	28.3	0	0	---	0.00	30.205 
21:50	38.0	38.0	38.0	68	28.4	0	0	---	0.00	30.205 
21:55	37.8	37.8	37.8	68	28.2	0	0	---	0.00	30.205 
22:00	37.6	37.6	37.6	69	28.4	0	0	---	0.00	30.203 
22:05	37.5	37.5	37.5	69	28.3	0	0	---	0.00	30.203 
22:10	37.3	37.3	37.3	69	28.1	0	0	---	0.00	30.203 
22:15	37.2	37.2	37.2	69	28.0	0	0	---	0.00	30.198 
22:20	37.2	37.2	37.2	69	28.0	0	0	---	0.00	30.198 
22:25	37.5	37.5	37.5	67	27.6	0	0	---	0.00	30.198 
22:30	37.9	37.9	37.9	66	27.6	0	0	---	0.00	30.197 
22:35	38.3	38.3	38.3	64	27.2	0	0	---	0.00	30.197 
22:40	38.8	38.8	38.8	63	27.3	0	0	---	0.00	30.197 
22:45	39.3	39.3	39.3	61	27.0	0	0	---	0.00	30.196 
22:50	39.8	39.8	39.8	60	27.1	0	0	---	0.00	30.196 
22:55	40.1	40.1	40.1	60	27.3	0	0	---	0.00	30.196 
23:00	40.1	40.1	40.1	59	26.9	0	0	---	0.00	30.197 
23:05	40.1	40.1	40.1	59	26.9	0	0	---	0.00	30.197 
23:10	40.1	40.1	40.1	59	26.9	0	0	---	0.00	30.197 
23:15	40.1	40.1	40.1	60	27.3	0	0	---	0.00	30.196 
23:20	39.9	39.9	39.9	60	27.2	0	0	---	0.00	30.196 
23:25	39.6	39.6	39.6	61	27.3	0	0	---	0.00	30.196 
23:30	39.2	39.2	39.2	61	26.9	0	0	---	0.00	30.205 
23:35	38.9	38.9	38.9	62	27.0	0	0	---	0.00	30.205 
23:40	38.5	38.5	38.5	62	26.6	0	0	---	0.00	30.205 
23:45	38.2	38.2	38.2	63	26.7	0	0	---	0.00	30.203 
23:50	37.8	37.8	37.8	65	27.1	0	0	---	0.00	30.203 
23:55	37.3	37.3	37.3	65	26.6	0	0	---	0.00	30.203 

CoCoRaHS
IN-AL-39
A2 Web Hosting
Creative Commons License
GoDaddy
search engine by freefind advanced

loaded 2018-11-16 00:13:33 • last modified 2010-11-18 10:43:29
Privacy PolicyDisclaimer
• wx.awcolley.com is powered by PmWiki v.2002016 •
• all content (unless otherwise noted) © 2018 A W Colley